Time,TemperatureF,DewpointF,PressureIn,WindDirection,WindDirectionDegrees,WindSpeedMPH,WindSpeedGustMPH,Humidity,HourlyPrecipIn,Conditions,Clouds,dailyrainin,SoftwareType,DateUTC
2013-08-23 00:00:00,69.7,67.6,30.10,SSE,163,1.0,5.0,93,0.00,,CLR,0.00,VWS V14.01,2013-08-23 05:00:00,
2013-08-23 00:02:00,69.6,67.5,30.10,ENE,74,0.0,5.0,93,0.00,,SCT110,0.00,VWS V14.01,2013-08-23 05:02:00,
2013-08-23 00:07:00,69.5,67.7,30.10,East,92,0.0,5.0,94,0.00,,SCT110,0.00,VWS V14.01,2013-08-23 05:07:00,
2013-08-23 00:10:00,69.5,67.7,30.10,East,98,1.0,5.0,94,0.00,,CLR,0.00,VWS V14.01,2013-08-23 05:10:00,
2013-08-23 00:12:00,69.4,67.6,30.10,East,96,0.0,4.0,94,0.00,,SCT110,0.00,VWS V14.01,2013-08-23 05:12:00,
2013-08-23 00:17:00,69.4,67.6,30.10,East,91,1.0,4.0,94,0.00,,SCT110,0.00,VWS V14.01,2013-08-23 05:17:00,
2013-08-23 00:20:00,69.4,67.6,30.10,East,87,1.0,4.0,94,0.00,,CLR,0.00,VWS V14.01,2013-08-23 05:20:00,
2013-08-23 00:22:00,69.3,67.5,30.10,ESE,110,3.0,3.0,94,0.00,,OVC110,0.00,VWS V14.01,2013-08-23 05:22:00,
2013-08-23 00:27:00,69.2,67.4,30.10,East,94,1.0,3.0,94,0.00,,OVC110,0.00,VWS V14.01,2013-08-23 05:27:00,
2013-08-23 00:30:00,69.2,67.4,30.10,East,98,0.0,3.0,94,0.00,,CLR,0.00,VWS V14.01,2013-08-23 05:30:00,
2013-08-23 00:32:00,69.2,67.4,30.10,SSE,156,0.0,1.0,94,0.00,,OVC029,0.00,VWS V14.01,2013-08-23 05:32:00,
2013-08-23 00:37:00,69.1,67.6,30.10,ESE,122,0.0,1.0,95,0.00,,OVC029,0.00,VWS V14.01,2013-08-23 05:37:00,
2013-08-23 00:40:00,69.1,67.6,30.10,ESE,122,0.0,1.0,95,0.00,,CLR,0.00,VWS V14.01,2013-08-23 05:40:00,
2013-08-23 00:42:00,69.1,67.6,30.10,ESE,122,0.0,0.0,95,0.00,,OVC029,0.00,VWS V14.01,2013-08-23 05:42:00,
2013-08-23 00:47:00,69.0,67.5,30.10,SE,127,0.0,1.0,95,0.00,,OVC029,0.00,VWS V14.01,2013-08-23 05:47:00,
2013-08-23 00:50:00,69.0,67.5,30.09,ESE,113,1.0,2.0,95,0.00,,CLR,0.00,VWS V14.01,2013-08-23 05:50:00,
2013-08-23 00:52:00,68.8,67.3,30.09,SE,143,0.0,2.0,95,0.00,,OVC029,0.00,VWS V14.01,2013-08-23 05:52:00,
2013-08-23 00:57:00,68.7,67.2,30.09,SSE,151,1.0,2.0,95,0.00,,OVC029,0.00,VWS V14.01,2013-08-23 05:57:00,
2013-08-23 01:00:00,68.7,67.2,30.09,ESE,114,1.0,2.0,95,0.00,,CLR,0.00,VWS V14.01,2013-08-23 06:00:00,
2013-08-23 01:02:00,68.7,67.2,30.09,ESE,110,1.0,2.0,95,0.00,,OVC029,0.00,VWS V14.01,2013-08-23 06:02:00,
2013-08-23 01:07:00,68.6,67.1,30.10,SE,133,0.0,4.0,95,0.00,,OVC029,0.00,VWS V14.01,2013-08-23 06:07:00,
2013-08-23 01:10:00,68.6,67.1,30.10,SE,133,0.0,4.0,95,0.00,,CLR,0.00,VWS V14.01,2013-08-23 06:10:00,
2013-08-23 01:12:00,68.5,67.3,30.09,ESE,111,0.0,0.0,96,0.00,,OVC029,0.00,VWS V14.01,2013-08-23 06:12:00,
2013-08-23 01:17:00,68.4,67.2,30.09,ESE,107,0.0,1.0,96,0.00,,OVC029,0.00,VWS V14.01,2013-08-23 06:17:00,
2013-08-23 01:20:00,68.4,67.2,30.09,East,98,0.0,1.0,96,0.00,,CLR,0.00,VWS V14.01,2013-08-23 06:20:00,
2013-08-23 01:22:00,68.4,67.2,30.09,East,94,0.0,2.0,96,0.00,,BKN090,0.00,VWS V14.01,2013-08-23 06:22:00,
2013-08-23 01:27:00,68.3,67.1,30.09,East,94,0.0,2.0,96,0.00,,BKN090,0.00,VWS V14.01,2013-08-23 06:27:00,
2013-08-23 01:30:00,68.3,67.1,30.09,East,95,0.0,2.0,96,0.00,,CLR,0.00,VWS V14.01,2013-08-23 06:30:00,
2013-08-23 01:32:00,68.2,67.0,30.09,ESE,115,0.0,0.0,96,0.00,,BKN090,0.00,VWS V14.01,2013-08-23 06:32:00,
2013-08-23 01:37:00,68.2,67.0,30.09,East,87,0.0,0.0,96,0.00,,BKN090,0.00,VWS V14.01,2013-08-23 06:37:00,
2013-08-23 01:40:00,68.2,67.0,30.09,East,87,0.0,0.0,96,0.00,,CLR,0.00,VWS V14.01,2013-08-23 06:40:00,
2013-08-23 01:42:00,68.1,66.9,30.09,East,87,0.0,0.0,96,0.00,,,0.00,VWS V14.01,2013-08-23 06:42:00,
2013-08-23 01:47:00,68.0,66.8,30.09,ESE,111,0.0,0.0,96,0.00,,,0.00,VWS V14.01,2013-08-23 06:47:00,
2013-08-23 01:50:00,68.0,66.8,30.09,ESE,111,0.0,0.0,96,0.00,,CLR,0.00,VWS V14.01,2013-08-23 06:50:00,
2013-08-23 01:52:00,67.9,66.7,30.09,ESE,111,0.0,0.0,96,0.00,,,0.00,VWS V14.01,2013-08-23 06:52:00,
2013-08-23 01:57:00,67.8,66.6,30.09,ESE,111,0.0,0.0,96,0.00,,,0.00,VWS V14.01,2013-08-23 06:57:00,
2013-08-23 02:00:00,67.9,66.7,30.09,ESE,111,0.0,0.0,96,0.00,,CLR,0.00,VWS V14.01,2013-08-23 07:00:00,
2013-08-23 02:02:00,67.8,66.6,30.09,ESE,111,0.0,0.0,96,0.00,,,0.00,VWS V14.01,2013-08-23 07:02:00,
2013-08-23 02:07:00,67.8,66.6,30.09,ESE,114,0.0,0.0,96,0.00,,,0.00,VWS V14.01,2013-08-23 07:07:00,
2013-08-23 02:10:00,67.8,66.6,30.09,ESE,115,0.0,0.0,96,0.00,,CLR,0.00,VWS V14.01,2013-08-23 07:10:00,
2013-08-23 02:12:00,67.8,66.6,30.09,ESE,103,0.0,0.0,96,0.00,,,0.00,VWS V14.01,2013-08-23 07:12:00,
2013-08-23 02:17:00,67.8,66.6,30.09,ESE,103,0.0,0.0,96,0.00,,,0.00,VWS V14.01,2013-08-23 07:17:00,
2013-08-23 02:20:00,67.8,66.6,30.09,ESE,103,0.0,0.0,96,0.00,,CLR,0.00,VWS V14.01,2013-08-23 07:20:00,
2013-08-23 02:22:00,67.7,66.5,30.09,ESE,103,0.0,0.0,96,0.00,,,0.00,VWS V14.01,2013-08-23 07:22:00,
2013-08-23 02:27:00,67.5,66.3,30.09,ESE,103,0.0,0.0,96,0.00,,,0.00,VWS V14.01,2013-08-23 07:27:00,
2013-08-23 02:30:00,67.6,66.4,30.09,ESE,103,0.0,0.0,96,0.00,,CLR,0.00,VWS V14.01,2013-08-23 07:30:00,
2013-08-23 02:32:00,67.5,66.3,30.09,ESE,103,0.0,0.0,96,0.00,,,0.00,VWS V14.01,2013-08-23 07:32:00,
2013-08-23 02:38:00,67.5,66.6,30.09,ESE,103,0.0,0.0,97,0.00,,,0.00,VWS V14.01,2013-08-23 07:38:00,
2013-08-23 02:40:00,67.5,66.6,30.09,ESE,103,0.0,0.0,97,0.00,,CLR,0.00,VWS V14.01,2013-08-23 07:40:00,
2013-08-23 02:43:00,67.4,66.5,30.09,ESE,103,0.0,0.0,97,0.00,,,0.00,VWS V14.01,2013-08-23 07:43:00,
2013-08-23 02:48:00,67.3,66.4,30.09,ESE,103,0.0,0.0,97,0.00,,,0.00,VWS V14.01,2013-08-23 07:48:00,
2013-08-23 02:50:00,67.4,66.5,30.09,ESE,103,0.0,0.0,97,0.00,,CLR,0.00,VWS V14.01,2013-08-23 07:50:00,
2013-08-23 02:53:00,67.3,66.4,30.09,ESE,103,0.0,0.0,97,0.00,,,0.00,VWS V14.01,2013-08-23 07:53:00,
2013-08-23 02:58:00,67.3,66.4,30.09,ESE,103,0.0,0.0,97,0.00,,,0.00,VWS V14.01,2013-08-23 07:58:00,
2013-08-23 03:00:00,67.2,66.3,30.09,ESE,103,0.0,0.0,97,0.00,,CLR,0.00,VWS V14.01,2013-08-23 08:00:00,
2013-08-23 03:03:00,67.1,66.2,30.09,ESE,103,0.0,0.0,97,0.00,,,0.00,VWS V14.01,2013-08-23 08:03:00,
2013-08-23 03:08:00,67.0,66.1,30.09,ESE,103,0.0,0.0,97,0.00,,,0.00,VWS V14.01,2013-08-23 08:08:00,
2013-08-23 03:10:00,67.0,66.1,30.09,ESE,103,0.0,0.0,97,0.00,,CLR,0.00,VWS V14.01,2013-08-23 08:10:00,
2013-08-23 03:13:00,66.9,66.0,30.09,ESE,103,0.0,0.0,97,0.00,,,0.00,VWS V14.01,2013-08-23 08:13:00,
2013-08-23 03:18:00,66.9,66.0,30.09,ESE,103,0.0,0.0,97,0.00,,,0.00,VWS V14.01,2013-08-23 08:18:00,
2013-08-23 03:20:00,66.9,66.0,30.09,ESE,103,0.0,0.0,97,0.00,,CLR,0.00,VWS V14.01,2013-08-23 08:20:00,
2013-08-23 03:23:00,67.0,66.1,30.09,ESE,103,0.0,0.0,97,0.00,,,0.00,VWS V14.01,2013-08-23 08:23:00,
2013-08-23 03:28:00,67.0,66.1,30.09,ESE,103,0.0,0.0,97,0.00,,,0.00,VWS V14.01,2013-08-23 08:28:00,
2013-08-23 03:30:00,67.0,66.1,30.09,ESE,103,0.0,0.0,97,0.00,,CLR,0.00,VWS V14.01,2013-08-23 08:30:00,
2013-08-23 03:33:00,67.0,66.1,30.09,ESE,103,0.0,0.0,97,0.00,,,0.00,VWS V14.01,2013-08-23 08:33:00,
2013-08-23 03:38:00,67.0,66.1,30.09,ESE,103,0.0,0.0,97,0.00,,,0.00,VWS V14.01,2013-08-23 08:38:00,
2013-08-23 03:40:00,67.0,66.1,30.09,ESE,103,0.0,0.0,97,0.00,,CLR,0.00,VWS V14.01,2013-08-23 08:40:00,
2013-08-23 03:43:00,67.0,66.1,30.09,ESE,103,0.0,0.0,97,0.00,,,0.00,VWS V14.01,2013-08-23 08:43:00,
2013-08-23 03:48:00,67.0,66.1,30.09,ESE,103,0.0,0.0,97,0.00,,,0.00,VWS V14.01,2013-08-23 08:48:00,
2013-08-23 03:50:00,67.0,66.1,30.09,ESE,103,0.0,0.0,97,0.00,,CLR,0.00,VWS V14.01,2013-08-23 08:50:00,
2013-08-23 03:53:00,66.9,66.0,30.09,ESE,103,0.0,0.0,97,0.00,,,0.00,VWS V14.01,2013-08-23 08:53:00,
2013-08-23 03:58:00,66.7,65.8,30.09,ESE,103,0.0,0.0,97,0.00,,,0.00,VWS V14.01,2013-08-23 08:58:00,
2013-08-23 04:00:00,66.7,65.8,30.09,ESE,103,0.0,0.0,97,0.00,,CLR,0.00,VWS V14.01,2013-08-23 09:00:00,
2013-08-23 04:03:00,66.6,65.7,30.09,ESE,103,0.0,0.0,97,0.00,,,0.00,VWS V14.01,2013-08-23 09:03:00,
2013-08-23 04:08:00,66.4,65.5,30.10,ESE,103,0.0,0.0,97,0.00,,,0.00,VWS V14.01,2013-08-23 09:08:00,
2013-08-23 04:10:00,66.5,65.6,30.10,ESE,103,0.0,0.0,97,0.00,,CLR,0.00,VWS V14.01,2013-08-23 09:10:00,
2013-08-23 04:13:00,66.4,65.5,30.10,ESE,103,0.0,0.0,97,0.00,,,0.00,VWS V14.01,2013-08-23 09:13:00,
2013-08-23 04:18:00,66.3,65.4,30.10,ESE,103,0.0,0.0,97,0.00,,,0.00,VWS V14.01,2013-08-23 09:18:00,
2013-08-23 04:20:00,66.3,65.4,30.10,ESE,103,0.0,0.0,97,0.00,,CLR,0.00,VWS V14.01,2013-08-23 09:20:00,
2013-08-23 04:23:00,66.2,65.3,30.10,ESE,103,0.0,0.0,97,0.00,,,0.00,VWS V14.01,2013-08-23 09:23:00,
2013-08-23 04:28:00,66.2,65.3,30.11,ESE,103,0.0,0.0,97,0.00,,,0.00,VWS V14.01,2013-08-23 09:28:00,
2013-08-23 04:30:00,66.2,65.3,30.11,ESE,103,0.0,0.0,97,0.00,,CLR,0.00,VWS V14.01,2013-08-23 09:30:00,
2013-08-23 04:33:00,66.1,65.2,30.11,ESE,103,0.0,0.0,97,0.00,,,0.00,VWS V14.01,2013-08-23 09:33:00,
2013-08-23 04:38:00,66.0,65.1,30.10,ESE,103,0.0,0.0,97,0.00,,,0.00,VWS V14.01,2013-08-23 09:38:00,
2013-08-23 04:40:00,66.0,65.1,30.10,ESE,103,0.0,0.0,97,0.00,,CLR,0.00,VWS V14.01,2013-08-23 09:40:00,
2013-08-23 04:43:00,65.8,64.9,30.10,ESE,103,0.0,0.0,97,0.00,,,0.00,VWS V14.01,2013-08-23 09:43:00,
2013-08-23 04:48:00,65.7,64.8,30.10,ESE,103,0.0,0.0,97,0.00,,,0.00,VWS V14.01,2013-08-23 09:48:00,
2013-08-23 04:50:00,65.7,64.8,30.10,ESE,103,0.0,0.0,97,0.00,,CLR,0.00,VWS V14.01,2013-08-23 09:50:00,
2013-08-23 04:53:00,65.6,64.7,30.10,ESE,103,0.0,0.0,97,0.00,,,0.00,VWS V14.01,2013-08-23 09:53:00,
2013-08-23 04:58:00,65.5,64.6,30.10,ESE,103,0.0,0.0,97,0.00,,,0.00,VWS V14.01,2013-08-23 09:58:00,
2013-08-23 05:00:00,65.5,64.6,30.10,ESE,103,0.0,0.0,97,0.00,,CLR,0.00,VWS V14.01,2013-08-23 10:00:00,
2013-08-23 05:03:00,65.4,64.5,30.10,ESE,103,0.0,0.0,97,0.00,,,0.00,VWS V14.01,2013-08-23 10:03:00,
2013-08-23 05:08:00,65.3,64.4,30.11,ESE,103,0.0,0.0,97,0.00,,,0.00,VWS V14.01,2013-08-23 10:08:00,
2013-08-23 05:10:00,65.3,64.4,30.11,ESE,103,0.0,0.0,97,0.00,,CLR,0.00,VWS V14.01,2013-08-23 10:10:00,
2013-08-23 05:13:00,65.2,64.3,30.11,ESE,103,0.0,0.0,97,0.00,,,0.00,VWS V14.01,2013-08-23 10:13:00,
2013-08-23 05:19:00,65.2,64.3,30.10,ESE,103,0.0,0.0,97,0.00,,,0.00,VWS V14.01,2013-08-23 10:19:00,
2013-08-23 05:20:00,65.2,64.3,30.10,ESE,103,0.0,0.0,97,0.00,,CLR,0.00,VWS V14.01,2013-08-23 10:20:00,
2013-08-23 05:24:00,65.2,64.3,30.11,ESE,103,0.0,0.0,97,0.00,,,0.00,VWS V14.01,2013-08-23 10:24:00,
2013-08-23 05:29:00,65.0,64.1,30.11,ESE,103,0.0,0.0,97,0.00,,,0.00,VWS V14.01,2013-08-23 10:29:00,
2013-08-23 05:30:00,65.0,64.1,30.11,ESE,103,0.0,0.0,97,0.00,,CLR,0.00,VWS V14.01,2013-08-23 10:30:00,
2013-08-23 05:34:00,64.9,64.0,30.11,ESE,103,0.0,0.0,97,0.00,,,0.00,VWS V14.01,2013-08-23 10:34:00,
2013-08-23 05:39:00,64.8,63.9,30.11,ESE,103,0.0,0.0,97,0.00,,,0.00,VWS V14.01,2013-08-23 10:39:00,
2013-08-23 05:40:00,64.8,63.9,30.11,ESE,103,0.0,0.0,97,0.00,,CLR,0.00,VWS V14.01,2013-08-23 10:40:00,
2013-08-23 05:44:00,64.8,63.9,30.11,ESE,103,0.0,0.0,97,0.00,,,0.00,VWS V14.01,2013-08-23 10:44:00,
2013-08-23 05:49:00,64.8,63.9,30.11,ESE,103,0.0,0.0,97,0.00,,,0.00,VWS V14.01,2013-08-23 10:49:00,
2013-08-23 05:50:00,64.8,63.9,30.11,ESE,103,0.0,0.0,97,0.00,,CLR,0.00,VWS V14.01,2013-08-23 10:50:00,
2013-08-23 05:54:00,64.8,63.9,30.11,ESE,103,0.0,0.0,97,0.00,,,0.00,VWS V14.01,2013-08-23 10:54:00,
2013-08-23 05:59:00,64.8,63.9,30.11,ESE,103,0.0,0.0,97,0.00,,,0.00,VWS V14.01,2013-08-23 10:59:00,
2013-08-23 06:00:00,64.8,63.9,30.11,ESE,103,0.0,0.0,97,0.00,,CLR,0.00,VWS V14.01,2013-08-23 11:00:00,
2013-08-23 06:04:00,64.8,63.9,30.11,ESE,103,0.0,0.0,97,0.00,,,0.00,VWS V14.01,2013-08-23 11:04:00,
2013-08-23 06:09:00,64.8,63.9,30.12,ESE,103,0.0,0.0,97,0.00,,,0.00,VWS V14.01,2013-08-23 11:09:00,
2013-08-23 06:10:00,64.8,63.9,30.12,ESE,103,0.0,0.0,97,0.00,,CLR,0.00,VWS V14.01,2013-08-23 11:10:00,
2013-08-23 06:14:00,64.7,63.8,30.12,ESE,103,0.0,0.0,97,0.00,,,0.00,VWS V14.01,2013-08-23 11:14:00,
2013-08-23 06:19:00,64.7,64.1,30.12,ESE,103,0.0,0.0,98,0.00,,,0.00,VWS V14.01,2013-08-23 11:19:00,
2013-08-23 06:20:00,64.7,64.1,30.12,ESE,103,0.0,0.0,98,0.00,,CLR,0.00,VWS V14.01,2013-08-23 11:20:00,
2013-08-23 06:24:00,64.6,63.7,30.12,ESE,103,0.0,0.0,97,0.00,,,0.00,VWS V14.01,2013-08-23 11:24:00,
2013-08-23 06:29:00,64.5,63.6,30.12,ESE,103,0.0,0.0,97,0.00,,,0.00,VWS V14.01,2013-08-23 11:29:00,
2013-08-23 06:30:00,64.5,63.6,30.12,ESE,103,0.0,0.0,97,0.00,,CLR,0.00,VWS V14.01,2013-08-23 11:30:00,
2013-08-23 06:34:00,64.4,63.5,30.13,ESE,103,0.0,0.0,97,0.00,,,0.00,VWS V14.01,2013-08-23 11:34:00,
2013-08-23 06:39:00,64.3,63.4,30.13,ESE,103,0.0,0.0,97,0.00,,,0.00,VWS V14.01,2013-08-23 11:39:00,
2013-08-23 06:40:00,64.3,63.4,30.13,ESE,103,0.0,0.0,97,0.00,,CLR,0.00,VWS V14.01,2013-08-23 11:40:00,
2013-08-23 06:44:00,64.2,63.3,30.13,ESE,103,0.0,0.0,97,0.00,,,0.00,VWS V14.01,2013-08-23 11:44:00,
2013-08-23 06:49:00,64.3,63.7,30.13,ESE,103,0.0,0.0,98,0.00,,,0.00,VWS V14.01,2013-08-23 11:49:00,
2013-08-23 06:50:00,64.3,63.7,30.13,ESE,103,0.0,0.0,98,0.00,,CLR,0.00,VWS V14.01,2013-08-23 11:50:00,
2013-08-23 06:54:00,64.5,63.9,30.13,ESE,103,0.0,0.0,98,0.00,,,0.00,VWS V14.01,2013-08-23 11:54:00,
2013-08-23 06:59:00,64.6,64.0,30.13,ESE,103,0.0,0.0,98,0.00,,,0.00,VWS V14.01,2013-08-23 11:59:00,
2013-08-23 07:00:00,64.6,64.0,30.13,ESE,103,0.0,0.0,98,0.00,,CLR,0.00,VWS V14.01,2013-08-23 12:00:00,
2013-08-23 07:04:00,64.8,64.2,30.13,ESE,103,0.0,0.0,98,0.00,,,0.00,VWS V14.01,2013-08-23 12:04:00,
2013-08-23 07:09:00,64.9,64.3,30.13,ESE,103,0.0,0.0,98,0.00,,,0.00,VWS V14.01,2013-08-23 12:09:00,
2013-08-23 07:10:00,64.9,64.3,30.13,ESE,103,0.0,0.0,98,0.00,,CLR,0.00,VWS V14.01,2013-08-23 12:10:00,
2013-08-23 07:14:00,65.2,64.6,30.14,ESE,103,0.0,0.0,98,0.00,,,0.00,VWS V14.01,2013-08-23 12:14:00,
2013-08-23 07:19:00,65.4,64.8,30.14,ESE,103,0.0,0.0,98,0.00,,,0.00,VWS V14.01,2013-08-23 12:19:00,
2013-08-23 07:20:00,65.4,64.8,30.14,ESE,103,0.0,0.0,98,0.00,,CLR,0.00,VWS V14.01,2013-08-23 12:20:00,
2013-08-23 07:24:00,65.7,65.1,30.14,ESE,103,0.0,0.0,98,0.00,,,0.00,VWS V14.01,2013-08-23 12:24:00,
2013-08-23 07:29:00,66.1,65.5,30.14,ENE,74,0.0,0.0,98,0.00,,,0.00,VWS V14.01,2013-08-23 12:29:00,
2013-08-23 07:30:00,66.0,65.4,30.14,ENE,74,0.0,0.0,98,0.00,,CLR,0.00,VWS V14.01,2013-08-23 12:30:00,
2013-08-23 07:34:00,66.5,65.9,30.14,ENE,76,0.0,0.0,98,0.00,,,0.00,VWS V14.01,2013-08-23 12:34:00,
2013-08-23 07:39:00,66.7,66.1,30.14,East,98,0.0,0.0,98,0.00,,,0.00,VWS V14.01,2013-08-23 12:39:00,
2013-08-23 07:40:00,66.7,66.1,30.14,ENE,76,0.0,0.0,98,0.00,,CLR,0.00,VWS V14.01,2013-08-23 12:40:00,
2013-08-23 07:44:00,67.0,66.4,30.14,East,92,0.0,0.0,98,0.00,,,0.00,VWS V14.01,2013-08-23 12:44:00,
2013-08-23 07:49:00,67.4,66.8,30.14,East,92,0.0,0.0,98,0.00,,,0.00,VWS V14.01,2013-08-23 12:49:00,
2013-08-23 07:50:00,67.3,66.7,30.14,East,92,0.0,0.0,98,0.00,,CLR,0.00,VWS V14.01,2013-08-23 12:50:00,
2013-08-23 07:55:00,67.7,67.1,30.14,East,81,0.0,0.0,98,0.00,,,0.00,VWS V14.01,2013-08-23 12:55:00,
2013-08-23 08:00:00,67.8,67.2,30.14,East,80,0.0,0.0,98,0.00,,,0.00,VWS V14.01,2013-08-23 13:00:00,
2013-08-23 08:05:00,67.8,67.2,30.14,East,79,0.0,0.0,98,0.00,,,0.00,VWS V14.01,2013-08-23 13:05:00,
2013-08-23 08:10:00,67.7,66.8,30.14,East,79,0.0,0.0,97,0.00,,,0.00,VWS V14.01,2013-08-23 13:10:00,
2013-08-23 08:15:00,67.7,66.8,30.14,ENE,63,0.0,0.0,97,0.00,,,0.00,VWS V14.01,2013-08-23 13:15:00,
2013-08-23 08:20:00,67.6,66.7,30.14,NNE,12,0.0,0.0,97,0.00,,,0.00,VWS V14.01,2013-08-23 13:20:00,
2013-08-23 08:25:00,67.7,66.8,30.14,NNE,12,0.0,0.0,97,0.00,,,0.00,VWS V14.01,2013-08-23 13:25:00,
2013-08-23 08:30:00,67.8,66.9,30.15,NNE,12,0.0,0.0,97,0.00,,,0.00,VWS V14.01,2013-08-23 13:30:00,
2013-08-23 08:35:00,67.9,67.0,30.15,NNE,12,0.0,0.0,97,0.00,,,0.00,VWS V14.01,2013-08-23 13:35:00,
2013-08-23 08:40:00,68.0,67.1,30.15,ENE,72,3.0,4.0,97,0.00,,,0.00,VWS V14.01,2013-08-23 13:40:00,
2013-08-23 08:45:00,68.1,67.2,30.15,ENE,77,0.0,4.0,97,0.00,,,0.00,VWS V14.01,2013-08-23 13:45:00,
2013-08-23 08:50:00,68.5,67.6,30.15,ENE,77,0.0,1.0,97,0.00,,,0.00,VWS V14.01,2013-08-23 13:50:00,
2013-08-23 08:55:00,69.0,68.1,30.15,ENE,69,0.0,1.0,97,0.00,,,0.00,VWS V14.01,2013-08-23 13:55:00,
2013-08-23 09:00:00,69.3,68.4,30.15,ENE,78,1.0,1.0,97,0.00,,,0.00,VWS V14.01,2013-08-23 14:00:00,
2013-08-23 09:05:00,69.3,68.1,30.15,East,90,0.0,3.0,96,0.00,,,0.00,VWS V14.01,2013-08-23 14:05:00,
2013-08-23 09:10:00,69.2,68.0,30.15,East,93,1.0,1.0,96,0.00,,,0.00,VWS V14.01,2013-08-23 14:10:00,
2013-08-23 09:15:00,69.3,68.1,30.15,ENE,73,0.0,3.0,96,0.00,,,0.00,VWS V14.01,2013-08-23 14:15:00,
2013-08-23 09:20:00,69.8,68.6,30.15,ENE,63,0.0,3.0,96,0.00,,,0.00,VWS V14.01,2013-08-23 14:20:00,
2013-08-23 09:25:00,70.0,68.5,30.15,NE,47,0.0,4.0,95,0.00,,,0.00,VWS V14.01,2013-08-23 14:25:00,
2013-08-23 09:30:00,70.1,68.3,30.15,NE,39,0.0,3.0,94,0.00,,,0.00,VWS V14.01,2013-08-23 14:30:00,
2013-08-23 09:35:00,70.1,68.3,30.15,ENE,75,1.0,3.0,94,0.00,,,0.00,VWS V14.01,2013-08-23 14:35:00,
2013-08-23 09:40:00,70.2,68.4,30.15,NE,55,0.0,0.0,94,0.00,,,0.00,VWS V14.01,2013-08-23 14:40:00,
2013-08-23 09:45:00,70.5,68.7,30.16,ESE,103,0.0,0.0,94,0.00,,,0.00,VWS V14.01,2013-08-23 14:45:00,
2013-08-23 09:50:00,70.8,68.7,30.16,NNE,33,0.0,5.0,93,0.00,,,0.00,VWS V14.01,2013-08-23 14:50:00,
2013-08-23 09:55:00,70.7,68.3,30.16,East,101,3.0,7.0,92,0.00,,,0.00,VWS V14.01,2013-08-23 14:55:00,
2013-08-23 10:00:00,70.9,68.5,30.16,NE,37,0.0,0.0,92,0.00,,,0.00,VWS V14.01,2013-08-23 15:00:00,
2013-08-23 10:05:00,71.7,69.3,30.16,ESE,121,4.0,5.0,92,0.00,,,0.00,VWS V14.01,2013-08-23 15:05:00,
2013-08-23 10:10:00,72.1,69.3,30.16,NE,52,0.0,4.0,91,0.00,,,0.00,VWS V14.01,2013-08-23 15:10:00,
2013-08-23 10:15:00,72.7,69.6,30.16,ENE,68,0.0,4.0,90,0.00,,,0.00,VWS V14.01,2013-08-23 15:15:00,
2013-08-23 10:20:00,73.1,69.3,30.16,NNE,25,0.0,5.0,88,0.00,,,0.00,VWS V14.01,2013-08-23 15:20:00,
2013-08-23 10:25:00,73.0,69.2,30.16,East,86,2.0,5.0,88,0.00,,,0.00,VWS V14.01,2013-08-23 15:25:00,
2013-08-23 10:30:00,72.6,68.5,30.16,East,83,2.0,4.0,87,0.00,,,0.00,VWS V14.01,2013-08-23 15:30:00,
2013-08-23 10:36:00,72.8,69.4,30.16,ENE,61,0.0,5.0,89,0.00,,,0.00,VWS V14.01,2013-08-23 15:36:00,
2013-08-23 10:40:00,72.9,69.1,30.16,NNE,25,0.0,5.0,88,0.00,,CLR,0.00,VWS V14.01,2013-08-23 15:40:00,
2013-08-23 10:41:00,72.8,68.7,30.16,ENE,63,0.0,2.0,87,0.00,,,0.00,VWS V14.01,2013-08-23 15:41:00,
2013-08-23 10:46:00,72.7,68.6,30.16,East,90,6.0,6.0,87,0.00,,,0.00,VWS V14.01,2013-08-23 15:46:00,
2013-08-23 10:50:00,72.9,69.1,30.16,NNE,25,0.0,8.0,88,0.00,,CLR,0.00,VWS V14.01,2013-08-23 15:50:00,
2013-08-23 10:51:00,73.2,69.4,30.16,NE,39,0.0,1.0,88,0.00,,,0.00,VWS V14.01,2013-08-23 15:51:00,
2013-08-23 10:56:00,73.6,68.8,30.16,ESE,105,3.0,5.0,85,0.00,,,0.00,VWS V14.01,2013-08-23 15:56:00,
2013-08-23 11:00:00,73.6,69.2,30.16,East,94,0.0,7.0,86,0.00,,CLR,0.00,VWS V14.01,2013-08-23 16:00:00,
2013-08-23 11:01:00,74.2,70.1,30.16,NNE,33,1.0,1.0,87,0.00,,,0.00,VWS V14.01,2013-08-23 16:01:00,
2013-08-23 11:06:00,75.0,69.5,30.16,NE,41,1.0,2.0,83,0.00,,,0.00,VWS V14.01,2013-08-23 16:06:00,
2013-08-23 11:10:00,75.0,69.5,30.16,NNE,26,0.0,2.0,83,0.00,,CLR,0.00,VWS V14.01,2013-08-23 16:10:00,
2013-08-23 11:11:00,74.7,68.8,30.16,NE,34,1.0,6.0,82,0.00,,,0.00,VWS V14.01,2013-08-23 16:11:00,
2013-08-23 11:16:00,74.8,69.3,30.16,ESE,109,1.0,6.0,83,0.00,,,0.00,VWS V14.01,2013-08-23 16:16:00,
2013-08-23 11:20:00,75.1,69.6,30.16,East,82,2.0,6.0,83,0.00,,CLR,0.00,VWS V14.01,2013-08-23 16:20:00,
2013-08-23 11:21:00,75.3,69.4,30.16,ESE,115,2.0,6.0,82,0.00,,,0.00,VWS V14.01,2013-08-23 16:21:00,
2013-08-23 11:26:00,75.1,69.6,30.16,ENE,65,0.0,6.0,83,0.00,,,0.00,VWS V14.01,2013-08-23 16:26:00,
2013-08-23 11:30:00,75.3,69.8,30.16,ENE,65,0.0,6.0,83,0.00,,CLR,0.00,VWS V14.01,2013-08-23 16:30:00,
2013-08-23 11:31:00,75.8,70.3,30.16,East,90,4.0,4.0,83,0.00,,,0.00,VWS V14.01,2013-08-23 16:31:00,
2013-08-23 11:36:00,76.2,69.9,30.16,East,84,1.0,4.0,81,0.00,,,0.00,VWS V14.01,2013-08-23 16:36:00,
2013-08-23 11:40:00,76.1,69.1,30.16,SE,146,1.0,5.0,79,0.00,,CLR,0.00,VWS V14.01,2013-08-23 16:40:00,
2013-08-23 11:41:00,75.9,68.6,30.16,SSE,155,4.0,6.0,78,0.00,,SCT015,0.00,VWS V14.01,2013-08-23 16:41:00,
2013-08-23 11:46:00,76.3,69.7,30.15,NE,46,1.0,6.0,80,0.00,,SCT015,0.00,VWS V14.01,2013-08-23 16:46:00,
2013-08-23 11:50:00,76.4,69.4,30.15,East,90,2.0,6.0,79,0.00,,CLR,0.00,VWS V14.01,2013-08-23 16:50:00,
2013-08-23 11:51:00,76.7,69.3,30.15,SE,145,5.0,5.0,78,0.00,,SCT015,0.00,VWS V14.01,2013-08-23 16:51:00,
2013-08-23 11:56:00,77.1,70.5,30.15,East,97,3.0,5.0,80,0.00,,SCT015,0.00,VWS V14.01,2013-08-23 16:56:00,
2013-08-23 12:00:00,77.4,70.8,30.15,NNE,29,0.0,5.0,80,0.00,,CLR,0.00,VWS V14.01,2013-08-23 17:00:00,
2013-08-23 12:01:00,77.6,69.1,30.15,ENE,77,1.0,3.0,75,0.00,,CLR,0.00,VWS V14.01,2013-08-23 17:01:00,
2013-08-23 12:06:00,77.4,69.2,30.15,NE,39,4.0,6.0,76,0.00,,CLR,0.00,VWS V14.01,2013-08-23 17:06:00,
2013-08-23 12:10:00,77.4,69.6,30.15,NE,51,0.0,6.0,77,0.00,,CLR,0.00,VWS V14.01,2013-08-23 17:10:00,
2013-08-23 12:11:00,77.4,69.2,30.15,ESE,111,4.0,7.0,76,0.00,,CLR,0.00,VWS V14.01,2013-08-23 17:11:00,
2013-08-23 12:16:00,77.5,68.6,30.15,SE,131,5.0,7.0,74,0.00,,CLR,0.00,VWS V14.01,2013-08-23 17:16:00,
2013-08-23 12:20:00,77.6,68.3,30.15,SE,139,2.0,7.0,73,0.00,,CLR,0.00,VWS V14.01,2013-08-23 17:20:00,
2013-08-23 12:21:00,77.8,69.2,30.15,ESE,112,5.0,5.0,75,0.00,,CLR,0.00,VWS V14.01,2013-08-23 17:21:00,
2013-08-23 12:26:00,78.1,68.8,30.15,South,175,4.0,5.0,73,0.00,,CLR,0.00,VWS V14.01,2013-08-23 17:26:00,
2013-08-23 12:30:00,78.1,69.1,30.15,East,83,4.0,6.0,74,0.00,,CLR,0.00,VWS V14.01,2013-08-23 17:30:00,
2013-08-23 12:31:00,78.2,69.6,30.15,NE,50,2.0,6.0,75,0.00,,CLR,0.00,VWS V14.01,2013-08-23 17:31:00,
2013-08-23 12:36:00,78.4,69.4,30.15,ENE,70,3.0,6.0,74,0.00,,CLR,0.00,VWS V14.01,2013-08-23 17:36:00,
2013-08-23 12:40:00,78.3,68.5,30.15,ESE,106,4.0,6.0,72,0.00,,CLR,0.00,VWS V14.01,2013-08-23 17:40:00,
2013-08-23 12:41:00,78.1,69.5,30.15,East,84,2.0,10.0,75,0.00,,CLR,0.00,VWS V14.01,2013-08-23 17:41:00,
2013-08-23 12:46:00,78.2,68.4,30.14,ENE,77,4.0,10.0,72,0.00,,CLR,0.00,VWS V14.01,2013-08-23 17:46:00,
2013-08-23 12:50:00,78.1,68.8,30.14,ESE,113,5.0,10.0,73,0.00,,CLR,0.00,VWS V14.01,2013-08-23 17:50:00,
2013-08-23 12:51:00,78.1,68.8,30.14,SSE,158,2.0,6.0,73,0.00,,CLR,0.00,VWS V14.01,2013-08-23 17:51:00,
2013-08-23 12:56:00,78.2,68.8,30.14,ENE,65,2.0,12.0,73,0.00,,CLR,0.00,VWS V14.01,2013-08-23 17:56:00,
2013-08-23 13:00:00,78.1,68.8,30.14,WNW,300,1.0,12.0,73,0.00,,CLR,0.00,VWS V14.01,2013-08-23 18:00:00,
2013-08-23 13:01:00,78.3,69.3,30.14,East,96,2.0,4.0,74,0.00,,CLR,0.00,VWS V14.01,2013-08-23 18:01:00,
2013-08-23 13:07:00,78.9,69.5,30.14,NE,34,2.0,7.0,73,0.00,,CLR,0.00,VWS V14.01,2013-08-23 18:07:00,
2013-08-23 13:10:00,78.9,69.9,30.14,SE,143,2.0,7.0,74,0.00,,CLR,0.00,VWS V14.01,2013-08-23 18:10:00,
2013-08-23 13:12:00,79.3,70.7,30.13,SE,124,5.0,7.0,75,0.00,,CLR,0.00,VWS V14.01,2013-08-23 18:12:00,
2013-08-23 13:17:00,79.4,69.6,30.13,East,96,3.0,9.0,72,0.00,,CLR,0.00,VWS V14.01,2013-08-23 18:17:00,
2013-08-23 13:20:00,79.5,70.1,30.13,SE,127,3.0,9.0,73,0.00,,CLR,0.00,VWS V14.01,2013-08-23 18:20:00,
2013-08-23 13:22:00,79.2,69.0,30.14,NE,51,0.0,9.0,71,0.00,,CLR,0.00,VWS V14.01,2013-08-23 18:22:00,
2013-08-23 13:27:00,79.4,69.2,30.13,East,81,4.0,9.0,71,0.00,,CLR,0.00,VWS V14.01,2013-08-23 18:27:00,
2013-08-23 13:30:00,79.4,69.2,30.13,NE,50,3.0,9.0,71,0.00,,CLR,0.00,VWS V14.01,2013-08-23 18:30:00,
2013-08-23 13:32:00,79.6,70.2,30.13,NNE,19,2.0,4.0,73,0.00,,CLR,0.00,VWS V14.01,2013-08-23 18:32:00,
2013-08-23 13:37:00,79.8,68.7,30.13,East,101,2.0,11.0,69,0.00,,CLR,0.00,VWS V14.01,2013-08-23 18:37:00,
2013-08-23 13:40:00,79.9,69.7,30.13,South,191,4.0,11.0,71,0.00,,CLR,0.00,VWS V14.01,2013-08-23 18:40:00,
2013-08-23 13:42:00,79.9,68.8,30.13,ENE,67,2.0,8.0,69,0.00,,CLR,0.00,VWS V14.01,2013-08-23 18:42:00,
2013-08-23 13:47:00,79.9,69.2,30.14,NE,41,1.0,8.0,70,0.00,,CLR,0.00,VWS V14.01,2013-08-23 18:47:00,
2013-08-23 13:50:00,80.0,68.9,30.14,NE,41,0.0,8.0,69,0.00,,CLR,0.00,VWS V14.01,2013-08-23 18:50:00,
2013-08-23 13:52:00,80.6,69.5,30.13,ESE,103,6.0,7.0,69,0.00,,CLR,0.00,VWS V14.01,2013-08-23 18:52:00,
2013-08-23 13:57:00,80.7,69.6,30.13,South,170,3.0,8.0,69,0.00,,CLR,0.00,VWS V14.01,2013-08-23 18:57:00,
2013-08-23 14:00:00,80.8,70.1,30.13,South,170,3.0,8.0,70,0.00,,CLR,0.00,VWS V14.01,2013-08-23 19:00:00,
2013-08-23 14:02:00,80.9,68.0,30.13,South,170,3.0,8.0,65,0.00,,CLR,0.00,VWS V14.01,2013-08-23 19:02:00,
2013-08-23 14:07:00,80.8,67.5,30.13,East,81,1.0,8.0,64,0.00,,CLR,0.00,VWS V14.01,2013-08-23 19:07:00,
2013-08-23 14:10:00,80.8,67.9,30.13,South,181,4.0,8.0,65,0.00,,CLR,0.00,VWS V14.01,2013-08-23 19:10:00,
2013-08-23 14:12:00,80.8,68.4,30.13,East,86,0.0,8.0,66,0.00,,CLR,0.00,VWS V14.01,2013-08-23 19:12:00,
2013-08-23 14:17:00,81.2,68.3,30.13,ENE,77,5.0,8.0,65,0.00,,CLR,0.00,VWS V14.01,2013-08-23 19:17:00,
2013-08-23 14:20:00,81.2,68.8,30.13,ESE,105,3.0,8.0,66,0.00,,CLR,0.00,VWS V14.01,2013-08-23 19:20:00,
2013-08-23 14:22:00,81.3,68.9,30.13,NE,51,0.0,5.0,66,0.00,,CLR,0.00,VWS V14.01,2013-08-23 19:22:00,
2013-08-23 14:27:00,81.4,68.1,30.13,ENE,65,2.0,5.0,64,0.00,,CLR,0.00,VWS V14.01,2013-08-23 19:27:00,
2013-08-23 14:30:00,81.4,68.1,30.13,East,89,1.0,5.0,64,0.00,,CLR,0.00,VWS V14.01,2013-08-23 19:30:00,
2013-08-23 14:32:00,81.6,67.8,30.13,SSE,165,3.0,6.0,63,0.00,,CLR,0.00,VWS V14.01,2013-08-23 19:32:00,
2013-08-23 14:37:00,81.7,66.9,30.13,ESE,118,3.0,6.0,61,0.00,,CLR,0.00,VWS V14.01,2013-08-23 19:37:00,
2013-08-23 14:40:00,81.7,67.9,30.13,South,174,1.0,6.0,63,0.00,,CLR,0.00,VWS V14.01,2013-08-23 19:40:00,
2013-08-23 14:42:00,81.7,67.4,30.13,East,88,6.0,6.0,62,0.00,,CLR,0.00,VWS V14.01,2013-08-23 19:42:00,
2013-08-23 14:47:00,81.3,66.6,30.12,ESE,117,1.0,8.0,61,0.00,,CLR,0.00,VWS V14.01,2013-08-23 19:47:00,
2013-08-23 14:50:00,81.2,67.4,30.12,ENE,70,4.0,8.0,63,0.00,,CLR,0.00,VWS V14.01,2013-08-23 19:50:00,
2013-08-23 14:52:00,81.1,67.8,30.12,East,101,2.0,10.0,64,0.00,,CLR,0.00,VWS V14.01,2013-08-23 19:52:00,
2013-08-23 14:57:00,81.4,66.2,30.12,NNE,28,1.0,10.0,60,0.00,,CLR,0.00,VWS V14.01,2013-08-23 19:57:00,
2013-08-23 15:00:00,81.3,65.1,30.12,ENE,77,1.0,10.0,58,0.00,,CLR,0.00,VWS V14.01,2013-08-23 20:00:00,
2013-08-23 15:02:00,81.3,66.1,30.12,NE,43,3.0,7.0,60,0.00,,CLR,0.00,VWS V14.01,2013-08-23 20:02:00,
2013-08-23 15:07:00,81.1,66.4,30.12,East,79,3.0,7.0,61,0.00,,CLR,0.00,VWS V14.01,2013-08-23 20:07:00,
2013-08-23 15:10:00,81.1,66.4,30.12,ESE,115,3.0,7.0,61,0.00,,CLR,0.00,VWS V14.01,2013-08-23 20:10:00,
2013-08-23 15:12:00,80.9,65.7,30.12,ESE,103,2.0,7.0,60,0.00,,CLR,0.00,VWS V14.01,2013-08-23 20:12:00,
2013-08-23 15:17:00,80.9,65.7,30.12,SE,125,3.0,9.0,60,0.00,,CLR,0.00,VWS V14.01,2013-08-23 20:17:00,
2013-08-23 15:20:00,80.9,65.7,30.12,South,177,1.0,9.0,60,0.00,,CLR,0.00,VWS V14.01,2013-08-23 20:20:00,
2013-08-23 15:22:00,81.1,67.8,30.11,NE,53,0.0,6.0,64,0.00,,CLR,0.00,VWS V14.01,2013-08-23 20:22:00,
2013-08-23 15:27:00,81.0,66.3,30.11,SSE,163,5.0,7.0,61,0.00,,CLR,0.00,VWS V14.01,2013-08-23 20:27:00,
2013-08-23 15:30:00,81.0,65.3,30.11,SE,127,2.0,7.0,59,0.00,,CLR,0.00,VWS V14.01,2013-08-23 20:30:00,
2013-08-23 15:32:00,81.0,66.8,30.11,ESE,103,0.0,8.0,62,0.00,,CLR,0.00,VWS V14.01,2013-08-23 20:32:00,
2013-08-23 15:37:00,81.0,66.8,30.11,East,84,1.0,8.0,62,0.00,,CLR,0.00,VWS V14.01,2013-08-23 20:37:00,
2013-08-23 15:40:00,81.0,66.8,30.11,ENE,72,0.0,8.0,62,0.00,,CLR,0.00,VWS V14.01,2013-08-23 20:40:00,
2013-08-23 15:43:00,81.0,67.2,30.11,ENE,72,1.0,8.0,63,0.00,,CLR,0.00,VWS V14.01,2013-08-23 20:43:00,
2013-08-23 15:48:00,81.1,68.2,30.11,NE,40,3.0,8.0,65,0.00,,CLR,0.00,VWS V14.01,2013-08-23 20:48:00,
2013-08-23 15:50:00,81.1,68.2,30.11,ENE,70,4.0,8.0,65,0.00,,CLR,0.00,VWS V14.01,2013-08-23 20:50:00,
2013-08-23 15:53:00,81.2,66.9,30.11,East,91,5.0,5.0,62,0.00,,CLR,0.00,VWS V14.01,2013-08-23 20:53:00,
2013-08-23 15:58:00,81.0,66.8,30.11,East,98,5.0,8.0,62,0.00,,CLR,0.00,VWS V14.01,2013-08-23 20:58:00,
2013-08-23 16:00:00,81.0,66.8,30.11,ESE,103,3.0,8.0,62,0.00,,CLR,0.00,VWS V14.01,2013-08-23 21:00:00,
2013-08-23 16:03:00,81.0,67.2,30.11,East,101,7.0,7.0,63,0.00,,CLR,0.00,VWS V14.01,2013-08-23 21:03:00,
2013-08-23 16:08:00,80.8,66.6,30.11,NE,43,0.0,8.0,62,0.00,,CLR,0.00,VWS V14.01,2013-08-23 21:08:00,
2013-08-23 16:10:00,80.8,66.6,30.11,NE,43,0.0,8.0,62,0.00,,CLR,0.00,VWS V14.01,2013-08-23 21:10:00,
2013-08-23 16:13:00,80.8,66.6,30.11,ENE,77,5.0,6.0,62,0.00,,CLR,0.00,VWS V14.01,2013-08-23 21:13:00,
2013-08-23 16:18:00,80.9,66.7,30.11,SE,141,3.0,6.0,62,0.00,,CLR,0.00,VWS V14.01,2013-08-23 21:18:00,
2013-08-23 16:20:00,80.9,66.7,30.11,SE,141,3.0,6.0,62,0.00,,CLR,0.00,VWS V14.01,2013-08-23 21:20:00,
2013-08-23 16:23:00,80.7,66.9,30.10,ESE,110,1.0,7.0,63,0.00,,CLR,0.00,VWS V14.01,2013-08-23 21:23:00,
2013-08-23 16:28:00,80.9,67.1,30.10,SSE,148,1.0,7.0,63,0.00,,CLR,0.00,VWS V14.01,2013-08-23 21:28:00,
2013-08-23 16:30:00,80.9,67.1,30.10,SSE,148,1.0,7.0,63,0.00,,CLR,0.00,VWS V14.01,2013-08-23 21:30:00,
2013-08-23 16:33:00,80.9,67.1,30.10,ESE,119,3.0,7.0,63,0.00,,CLR,0.00,VWS V14.01,2013-08-23 21:33:00,
2013-08-23 16:38:00,80.9,67.1,30.10,SSE,150,1.0,7.0,63,0.00,,CLR,0.00,VWS V14.01,2013-08-23 21:38:00,
2013-08-23 16:40:00,80.9,67.1,30.10,SSE,150,1.0,7.0,63,0.00,,CLR,0.00,VWS V14.01,2013-08-23 21:40:00,
2013-08-23 16:43:00,80.8,67.5,30.10,ENE,78,0.0,6.0,64,0.00,,CLR,0.00,VWS V14.01,2013-08-23 21:43:00,
2013-08-23 16:48:00,80.7,67.4,30.10,East,89,3.0,3.0,64,0.00,,CLR,0.00,VWS V14.01,2013-08-23 21:48:00,
2013-08-23 16:50:00,80.8,67.5,30.11,East,89,3.0,6.0,64,0.00,,CLR,0.00,VWS V14.01,2013-08-23 21:50:00,
2013-08-23 16:53:00,80.6,67.3,30.10,East,90,3.0,6.0,64,0.00,,CLR,0.00,VWS V14.01,2013-08-23 21:53:00,
2013-08-23 16:58:00,80.6,66.8,30.11,SW,215,4.0,4.0,63,0.00,,CLR,0.00,VWS V14.01,2013-08-23 21:58:00,
2013-08-23 17:00:00,80.6,66.8,30.11,South,186,4.0,7.0,63,0.00,,CLR,0.00,VWS V14.01,2013-08-23 22:00:00,
2013-08-23 17:03:00,80.5,67.2,30.11,NE,56,2.0,5.0,64,0.00,,CLR,0.00,VWS V14.01,2013-08-23 22:03:00,
2013-08-23 17:08:00,80.4,66.7,30.10,East,86,0.0,1.0,63,0.00,,CLR,0.00,VWS V14.01,2013-08-23 22:08:00,
2013-08-23 17:10:00,80.4,66.7,30.10,East,86,1.0,5.0,63,0.00,,CLR,0.00,VWS V14.01,2013-08-23 22:10:00,
2013-08-23 17:13:00,80.2,66.5,30.10,ENE,75,1.0,4.0,63,0.00,,CLR,0.00,VWS V14.01,2013-08-23 22:13:00,
2013-08-23 17:18:00,80.2,66.5,30.10,SE,146,1.0,3.0,63,0.00,,CLR,0.00,VWS V14.01,2013-08-23 22:18:00,
2013-08-23 17:20:00,80.2,66.9,30.10,ESE,103,3.0,4.0,64,0.00,,CLR,0.00,VWS V14.01,2013-08-23 22:20:00,
2013-08-23 17:23:00,80.2,66.0,30.10,ENE,76,0.0,5.0,62,0.00,,CLR,0.00,VWS V14.01,2013-08-23 22:23:00,
2013-08-23 17:28:00,80.2,66.5,30.10,East,82,1.0,1.0,63,0.00,,CLR,0.00,VWS V14.01,2013-08-23 22:28:00,
2013-08-23 17:30:00,80.2,66.5,30.10,ENE,67,0.0,5.0,63,0.00,,CLR,0.00,VWS V14.01,2013-08-23 22:30:00,
2013-08-23 17:33:00,80.1,66.4,30.10,ENE,66,0.0,5.0,63,0.00,,CLR,0.00,VWS V14.01,2013-08-23 22:33:00,
2013-08-23 17:38:00,79.9,66.7,30.10,ENE,74,1.0,1.0,64,0.00,,CLR,0.00,VWS V14.01,2013-08-23 22:38:00,
2013-08-23 17:40:00,79.9,66.7,30.10,ENE,74,0.0,5.0,64,0.00,,CLR,0.00,VWS V14.01,2013-08-23 22:40:00,
2013-08-23 17:43:00,79.9,66.7,30.10,ENE,77,3.0,5.0,64,0.00,,CLR,0.00,VWS V14.01,2013-08-23 22:43:00,
2013-08-23 17:48:00,79.9,67.1,30.10,ENE,70,0.0,1.0,65,0.00,,CLR,0.00,VWS V14.01,2013-08-23 22:48:00,
2013-08-23 17:50:00,79.9,67.1,30.10,ESE,110,0.0,5.0,65,0.00,,CLR,0.00,VWS V14.01,2013-08-23 22:50:00,
2013-08-23 17:53:00,79.8,66.1,30.10,NE,53,0.0,2.0,63,0.00,,CLR,0.00,VWS V14.01,2013-08-23 22:53:00,
2013-08-23 17:58:00,79.7,66.0,30.10,ENE,76,2.0,2.0,63,0.00,,CLR,0.00,VWS V14.01,2013-08-23 22:58:00,
2013-08-23 18:00:00,79.7,65.5,30.10,ENE,78,1.0,2.0,62,0.00,,CLR,0.00,VWS V14.01,2013-08-23 23:00:00,
2013-08-23 18:03:00,79.6,65.9,30.10,SSE,163,2.0,3.0,63,0.00,,CLR,0.00,VWS V14.01,2013-08-23 23:03:00,
2013-08-23 18:08:00,79.6,66.8,30.10,ESE,103,0.0,2.0,65,0.00,,CLR,0.00,VWS V14.01,2013-08-23 23:08:00,
2013-08-23 18:10:00,79.6,66.4,30.10,ESE,104,2.0,3.0,64,0.00,,CLR,0.00,VWS V14.01,2013-08-23 23:10:00,
2013-08-23 18:13:00,79.5,67.2,30.10,East,96,0.0,3.0,66,0.00,,CLR,0.00,VWS V14.01,2013-08-23 23:13:00,
2013-08-23 18:18:00,79.4,67.1,30.10,East,97,0.0,1.0,66,0.00,,CLR,0.00,VWS V14.01,2013-08-23 23:18:00,
2013-08-23 18:20:00,79.4,66.6,30.10,East,97,1.0,3.0,65,0.00,,CLR,0.00,VWS V14.01,2013-08-23 23:20:00,
2013-08-23 18:24:00,79.3,67.4,30.10,SE,131,0.0,2.0,67,0.00,,CLR,0.00,VWS V14.01,2013-08-23 23:24:00,
2013-08-23 18:29:00,79.1,67.2,30.10,East,96,0.0,3.0,67,0.00,,CLR,0.00,VWS V14.01,2013-08-23 23:29:00,
2013-08-23 18:30:00,79.2,67.3,30.10,East,81,3.0,3.0,67,0.00,,CLR,0.00,VWS V14.01,2013-08-23 23:30:00,
2013-08-23 18:34:00,78.9,67.0,30.10,East,86,0.0,3.0,67,0.00,,CLR,0.00,VWS V14.01,2013-08-23 23:34:00,
2013-08-23 18:39:00,78.7,66.8,30.10,East,87,1.0,1.0,67,0.00,,CLR,0.00,VWS V14.01,2013-08-23 23:39:00,
2013-08-23 18:40:00,78.7,66.4,30.10,East,88,0.0,3.0,66,0.00,,CLR,0.00,VWS V14.01,2013-08-23 23:40:00,
2013-08-23 18:44:00,78.6,67.2,30.10,East,90,0.0,4.0,68,0.00,,CLR,0.00,VWS V14.01,2013-08-23 23:44:00,
2013-08-23 18:49:00,78.4,67.4,30.10,East,86,0.0,0.0,69,0.00,,CLR,0.00,VWS V14.01,2013-08-23 23:49:00,
2013-08-23 18:50:00,78.4,67.4,30.10,East,86,0.0,4.0,69,0.00,,CLR,0.00,VWS V14.01,2013-08-23 23:50:00,
2013-08-23 18:54:00,78.1,67.5,30.10,East,92,0.0,3.0,70,0.00,,CLR,0.00,VWS V14.01,2013-08-23 23:54:00,
2013-08-23 18:59:00,77.8,67.7,30.10,East,92,0.0,0.0,71,0.00,,CLR,0.00,VWS V14.01,2013-08-23 23:59:00,
2013-08-23 19:00:00,77.9,67.8,30.10,East,92,0.0,3.0,71,0.00,,CLR,0.00,VWS V14.01,2013-08-24 00:00:00,
2013-08-23 19:04:00,77.5,67.4,30.10,East,87,0.0,2.0,71,0.00,,CLR,0.00,VWS V14.01,2013-08-24 00:04:00,
2013-08-23 19:09:00,77.3,67.6,30.10,ENE,77,0.0,0.0,72,0.00,,CLR,0.00,VWS V14.01,2013-08-24 00:09:00,
2013-08-23 19:10:00,77.4,67.3,30.10,ENE,78,0.0,2.0,71,0.00,,CLR,0.00,VWS V14.01,2013-08-24 00:10:00,
2013-08-23 19:14:00,77.0,67.3,30.10,East,89,2.0,4.0,72,0.00,,CLR,0.00,VWS V14.01,2013-08-24 00:14:00,
2013-08-23 19:19:00,76.8,67.1,30.10,NE,53,0.0,0.0,72,0.00,,CLR,0.00,VWS V14.01,2013-08-24 00:19:00,
2013-08-23 19:20:00,76.8,67.1,30.10,NE,53,1.0,4.0,72,0.00,,CLR,0.00,VWS V14.01,2013-08-24 00:20:00,
2013-08-23 19:24:00,76.5,67.2,30.10,NE,54,0.0,0.0,73,0.00,,CLR,0.00,VWS V14.01,2013-08-24 00:24:00,
2013-08-23 19:29:00,76.2,66.9,30.10,NE,56,0.0,0.0,73,0.00,,CLR,0.00,VWS V14.01,2013-08-24 00:29:00,
2013-08-23 19:30:00,76.3,67.0,30.10,NE,56,0.0,1.0,73,0.00,,CLR,0.00,VWS V14.01,2013-08-24 00:30:00,
2013-08-23 19:34:00,75.9,67.0,30.10,NE,56,0.0,0.0,74,0.00,,CLR,0.00,VWS V14.01,2013-08-24 00:34:00,
2013-08-23 19:39:00,75.6,66.7,30.10,ENE,77,0.0,0.0,74,0.00,,CLR,0.00,VWS V14.01,2013-08-24 00:39:00,
2013-08-23 19:40:00,75.7,66.8,30.10,ENE,78,0.0,1.0,74,0.00,,CLR,0.00,VWS V14.01,2013-08-24 00:40:00,
2013-08-23 19:44:00,75.3,66.8,30.10,ENE,78,0.0,0.0,75,0.00,,CLR,0.00,VWS V14.01,2013-08-24 00:44:00,
2013-08-23 19:49:00,74.9,66.4,30.10,ENE,77,0.0,0.0,75,0.00,,CLR,0.00,VWS V14.01,2013-08-24 00:49:00,
2013-08-23 19:50:00,75.0,66.6,30.10,ENE,77,0.0,0.0,75,0.00,,CLR,0.00,VWS V14.01,2013-08-24 00:50:00,
2013-08-23 19:54:00,74.6,66.2,30.10,ESE,108,0.0,1.0,75,0.00,,CLR,0.00,VWS V14.01,2013-08-24 00:54:00,
2013-08-23 19:59:00,74.4,66.0,30.11,East,98,0.0,0.0,75,0.00,,CLR,0.00,VWS V14.01,2013-08-24 00:59:00,
2013-08-23 20:00:00,74.5,66.1,30.11,East,98,0.0,1.0,75,0.00,,CLR,0.00,VWS V14.01,2013-08-24 01:00:00,
2013-08-23 20:04:00,74.3,65.9,30.11,East,97,0.0,0.0,75,0.00,,CLR,0.00,VWS V14.01,2013-08-24 01:04:00,
2013-08-23 20:09:00,74.1,65.7,30.11,ESE,103,0.0,0.0,75,0.00,,CLR,0.00,VWS V14.01,2013-08-24 01:09:00,
2013-08-23 20:10:00,74.1,65.7,30.11,East,101,0.0,1.0,75,0.00,,CLR,0.00,VWS V14.01,2013-08-24 01:10:00,
2013-08-23 20:14:00,74.1,65.7,30.11,East,98,0.0,1.0,75,0.00,,CLR,0.00,VWS V14.01,2013-08-24 01:14:00,
2013-08-23 20:19:00,74.0,65.6,30.11,East,94,0.0,2.0,75,0.00,,CLR,0.00,VWS V14.01,2013-08-24 01:19:00,
2013-08-23 20:20:00,74.0,65.6,30.11,East,81,1.0,4.0,75,0.00,,CLR,0.00,VWS V14.01,2013-08-24 01:20:00,
2013-08-23 20:24:00,74.0,65.6,30.11,East,97,0.0,2.0,75,0.00,,CLR,0.00,VWS V14.01,2013-08-24 01:24:00,
2013-08-23 20:29:00,74.1,65.3,30.12,East,94,0.0,1.0,74,0.00,,CLR,0.00,VWS V14.01,2013-08-24 01:29:00,
2013-08-23 20:30:00,74.1,65.3,30.11,East,82,0.0,3.0,74,0.00,,CLR,0.00,VWS V14.01,2013-08-24 01:30:00,
2013-08-23 20:34:00,74.1,65.3,30.12,East,93,3.0,3.0,74,0.00,,CLR,0.00,VWS V14.01,2013-08-24 01:34:00,
2013-08-23 20:39:00,74.0,65.2,30.12,ESE,105,1.0,1.0,74,0.00,,CLR,0.00,VWS V14.01,2013-08-24 01:39:00,
2013-08-23 20:40:00,74.0,65.2,30.12,ESE,105,0.0,3.0,74,0.00,,CLR,0.00,VWS V14.01,2013-08-24 01:40:00,
2013-08-23 20:44:00,73.8,65.4,30.12,ESE,108,0.0,1.0,75,0.00,,CLR,0.00,VWS V14.01,2013-08-24 01:44:00,
2013-08-23 20:49:00,73.6,65.2,30.12,East,101,1.0,3.0,75,0.00,,CLR,0.00,VWS V14.01,2013-08-24 01:49:00,
2013-08-23 20:50:00,73.6,65.2,30.12,ENE,76,2.0,2.0,75,0.00,,CLR,0.00,VWS V14.01,2013-08-24 01:50:00,
2013-08-23 20:54:00,73.4,65.0,30.12,East,96,0.0,3.0,75,0.00,,CLR,0.00,VWS V14.01,2013-08-24 01:54:00,
2013-08-23 20:59:00,73.2,64.8,30.12,ESE,103,0.0,1.0,75,0.00,,CLR,0.00,VWS V14.01,2013-08-24 01:59:00,
2013-08-23 21:00:00,73.3,64.9,30.12,ESE,103,1.0,3.0,75,0.00,,CLR,0.00,VWS V14.01,2013-08-24 02:00:00,
2013-08-23 21:05:00,73.0,64.6,30.13,East,85,0.0,2.0,75,0.00,,CLR,0.00,VWS V14.01,2013-08-24 02:05:00,
2013-08-23 21:10:00,72.8,64.4,30.13,East,82,0.0,2.0,75,0.00,,CLR,0.00,VWS V14.01,2013-08-24 02:10:00,
2013-08-23 21:15:00,72.8,64.0,30.13,East,89,0.0,4.0,74,0.00,,CLR,0.00,VWS V14.01,2013-08-24 02:15:00,
2013-08-23 21:20:00,72.8,63.7,30.14,East,84,0.0,4.0,73,0.00,,CLR,0.00,VWS V14.01,2013-08-24 02:20:00,
2013-08-23 21:25:00,72.8,63.7,30.14,ESE,102,0.0,4.0,73,0.00,,CLR,0.00,VWS V14.01,2013-08-24 02:25:00,
2013-08-23 21:30:00,72.6,63.5,30.14,ESE,115,0.0,2.0,73,0.00,,CLR,0.00,VWS V14.01,2013-08-24 02:30:00,
2013-08-23 21:35:00,72.6,63.5,30.14,ESE,103,0.0,4.0,73,0.00,,CLR,0.00,VWS V14.01,2013-08-24 02:35:00,
2013-08-23 21:40:00,72.4,63.3,30.14,East,84,1.0,4.0,73,0.00,,CLR,0.00,VWS V14.01,2013-08-24 02:40:00,
2013-08-23 21:45:00,72.2,63.1,30.14,East,82,0.0,4.0,73,0.00,,CLR,0.00,VWS V14.01,2013-08-24 02:45:00,
2013-08-23 21:50:00,72.0,62.9,30.14,ESE,105,0.0,3.0,73,0.00,,CLR,0.00,VWS V14.01,2013-08-24 02:50:00,
2013-08-23 21:55:00,72.0,62.9,30.14,South,169,1.0,5.0,73,0.00,,CLR,0.00,VWS V14.01,2013-08-24 02:55:00,
2013-08-23 22:00:00,71.8,62.7,30.14,SE,136,3.0,4.0,73,0.00,,CLR,0.00,VWS V14.01,2013-08-24 03:00:00,
2013-08-23 22:05:00,71.6,62.9,30.14,East,88,0.0,5.0,74,0.00,,CLR,0.00,VWS V14.01,2013-08-24 03:05:00,
2013-08-23 22:10:00,71.4,62.7,30.14,East,94,2.0,3.0,74,0.00,,CLR,0.00,VWS V14.01,2013-08-24 03:10:00,
2013-08-23 22:15:00,71.2,62.5,30.14,East,85,0.0,3.0,74,0.00,,CLR,0.00,VWS V14.01,2013-08-24 03:15:00,
2013-08-23 22:20:00,71.1,62.4,30.14,ESE,103,0.0,3.0,74,0.00,,CLR,0.00,VWS V14.01,2013-08-24 03:20:00,
2013-08-23 22:25:00,70.9,62.2,30.15,East,87,0.0,4.0,74,0.00,,CLR,0.00,VWS V14.01,2013-08-24 03:25:00,
2013-08-23 22:30:00,70.7,62.0,30.14,East,83,0.0,3.0,74,0.00,,CLR,0.00,VWS V14.01,2013-08-24 03:30:00,
2013-08-23 22:35:00,70.6,61.9,30.15,East,85,2.0,6.0,74,0.00,,CLR,0.00,VWS V14.01,2013-08-24 03:35:00,
2013-08-23 22:40:00,70.4,62.1,30.15,ESE,111,2.0,3.0,75,0.00,,CLR,0.00,VWS V14.01,2013-08-24 03:40:00,
2013-08-23 22:45:00,70.1,61.8,30.15,East,87,3.0,6.0,75,0.00,,CLR,0.00,VWS V14.01,2013-08-24 03:45:00,
2013-08-23 22:50:00,70.0,62.1,30.15,ENE,77,0.0,7.0,76,0.00,,CLR,0.00,VWS V14.01,2013-08-24 03:50:00,
2013-08-23 22:55:00,69.7,62.2,30.15,ENE,74,1.0,7.0,77,0.00,,CLR,0.00,VWS V14.01,2013-08-24 03:55:00,
2013-08-23 23:00:00,69.4,61.9,30.15,SE,125,1.0,7.0,77,0.00,,CLR,0.00,VWS V14.01,2013-08-24 04:00:00,
2013-08-23 23:01:00,69.4,61.9,30.15,ESE,111,1.0,7.0,77,0.00,,CLR,0.00,VWS V14.01,2013-08-24 04:01:00,
2013-08-23 23:02:00,69.3,61.8,30.15,ENE,61,2.0,7.0,77,0.00,,CLR,0.00,VWS V14.01,2013-08-24 04:02:00,
2013-08-23 23:04:00,69.3,61.8,30.15,East,94,2.0,7.0,77,0.00,,CLR,0.00,VWS V14.01,2013-08-24 04:04:00,
2013-08-23 23:09:00,69.0,61.5,30.15,East,100,0.0,0.0,77,0.00,,CLR,0.00,VWS V14.01,2013-08-24 04:09:00,
2013-08-23 23:10:00,69.1,61.6,30.15,SE,132,0.0,7.0,77,0.00,,CLR,0.00,VWS V14.01,2013-08-24 04:10:00,
2013-08-23 23:14:00,68.8,61.7,30.15,ESE,110,1.0,4.0,78,0.00,,CLR,0.00,VWS V14.01,2013-08-24 04:14:00,
2013-08-23 23:19:00,68.6,61.5,30.15,ESE,121,2.0,2.0,78,0.00,,CLR,0.00,VWS V14.01,2013-08-24 04:19:00,
2013-08-23 23:20:00,68.6,61.5,30.15,East,79,0.0,4.0,78,0.00,,CLR,0.00,VWS V14.01,2013-08-24 04:20:00,
2013-08-23 23:24:00,68.5,61.4,30.15,East,86,4.0,4.0,78,0.00,,CLR,0.00,VWS V14.01,2013-08-24 04:24:00,
2013-08-23 23:29:00,68.3,61.2,30.15,East,92,1.0,2.0,78,0.00,,CLR,0.00,VWS V14.01,2013-08-24 04:29:00,
2013-08-23 23:30:00,68.4,61.3,30.15,East,88,2.0,4.0,78,0.00,,CLR,0.00,VWS V14.01,2013-08-24 04:30:00,
2013-08-23 23:34:00,68.1,61.0,30.15,East,88,4.0,5.0,78,0.00,,CLR,0.00,VWS V14.01,2013-08-24 04:34:00,
2013-08-23 23:39:00,67.8,60.7,30.15,East,82,0.0,3.0,78,0.00,,CLR,0.00,VWS V14.01,2013-08-24 04:39:00,
2013-08-23 23:40:00,67.9,60.8,30.15,ESE,102,1.0,5.0,78,0.00,,CLR,0.00,VWS V14.01,2013-08-24 04:40:00,
2013-08-23 23:44:00,67.6,60.9,30.15,East,87,0.0,5.0,79,0.00,,CLR,0.00,VWS V14.01,2013-08-24 04:44:00,
2013-08-23 23:49:00,67.4,60.7,30.15,East,85,3.0,4.0,79,0.00,,CLR,0.00,VWS V14.01,2013-08-24 04:49:00,
2013-08-23 23:50:00,67.4,60.7,30.15,East,100,1.0,5.0,79,0.00,,CLR,0.00,VWS V14.01,2013-08-24 04:50:00,
2013-08-23 23:54:00,67.3,60.9,30.15,East,92,0.0,6.0,80,0.00,,CLR,0.00,VWS V14.01,2013-08-24 04:54:00,
2013-08-23 23:59:00,67.1,60.7,30.15,East,96,1.0,4.0,80,0.00,,CLR,0.00,VWS V14.01,2013-08-24 04:59:00,